sensor_id;sensor_type;location;lat;lon;timestamp;temperature;humidity
79494;SHT31;68951;53.130;18.104;2023-04-24T00:00:13;14.91;73.10
79494;SHT31;68951;53.130;18.104;2023-04-24T00:03:01;14.90;73.10
79494;SHT31;68951;53.130;18.104;2023-04-24T00:05:29;14.90;73.10
79494;SHT31;68951;53.130;18.104;2023-04-24T00:07:56;14.88;73.10
79494;SHT31;68951;53.130;18.104;2023-04-24T00:10:23;14.84;73.10
79494;SHT31;68951;53.130;18.104;2023-04-24T00:12:49;14.81;73.13
79494;SHT31;68951;53.130;18.104;2023-04-24T00:15:16;14.83;73.16
79494;SHT31;68951;53.130;18.104;2023-04-24T00:17:43;14.85;73.20
79494;SHT31;68951;53.130;18.104;2023-04-24T00:20:10;14.87;73.19
79494;SHT31;68951;53.130;18.104;2023-04-24T00:22:37;14.86;73.14
79494;SHT31;68951;53.130;18.104;2023-04-24T00:25:04;14.85;73.10
79494;SHT31;68951;53.130;18.104;2023-04-24T00:27:32;14.79;73.10
79494;SHT31;68951;53.130;18.104;2023-04-24T00:29:58;14.72;73.17
79494;SHT31;68951;53.130;18.104;2023-04-24T00:32:26;14.67;73.24
79494;SHT31;68951;53.130;18.104;2023-04-24T00:34:52;14.65;73.30
79494;SHT31;68951;53.130;18.104;2023-04-24T00:37:19;14.65;73.39
79494;SHT31;68951;53.130;18.104;2023-04-24T00:39:46;14.63;73.40
79494;SHT31;68951;53.130;18.104;2023-04-24T00:42:13;14.66;73.40
79494;SHT31;68951;53.130;18.104;2023-04-24T00:44:41;14.66;73.40
79494;SHT31;68951;53.130;18.104;2023-04-24T00:47:07;14.64;73.42
79494;SHT31;68951;53.130;18.104;2023-04-24T00:49:35;14.61;73.48
79494;SHT31;68951;53.130;18.104;2023-04-24T00:52:02;14.60;73.48
79494;SHT31;68951;53.130;18.104;2023-04-24T00:54:33;14.58;73.49
79494;SHT31;68951;53.130;18.104;2023-04-24T00:57:03;14.56;73.51
79494;SHT31;68951;53.130;18.104;2023-04-24T00:59:31;14.56;73.58
79494;SHT31;68951;53.130;18.104;2023-04-24T01:01:58;14.55;73.62
79494;SHT31;68951;53.130;18.104;2023-04-24T01:04:26;14.52;73.70
79494;SHT31;68951;53.130;18.104;2023-04-24T01:06:53;14.47;73.70
79494;SHT31;68951;53.130;18.104;2023-04-24T01:09:25;14.49;73.70
79494;SHT31;68951;53.130;18.104;2023-04-24T01:11:52;14.54;73.74
79494;SHT31;68951;53.130;18.104;2023-04-24T01:14:20;14.53;73.72
79494;SHT31;68951;53.130;18.104;2023-04-24T01:16:47;14.50;73.80
79494;SHT31;68951;53.130;18.104;2023-04-24T01:19:14;14.47;73.81
79494;SHT31;68951;53.130;18.104;2023-04-24T01:21:43;14.45;73.89
79494;SHT31;68951;53.130;18.104;2023-04-24T01:24:13;14.45;73.92
79494;SHT31;68951;53.130;18.104;2023-04-24T01:26:40;14.48;73.91
79494;SHT31;68951;53.130;18.104;2023-04-24T01:29:07;14.50;73.90
79494;SHT31;68951;53.130;18.104;2023-04-24T01:31:34;14.52;73.90
79494;SHT31;68951;53.130;18.104;2023-04-24T01:34:02;14.54;73.90
79494;SHT31;68951;53.130;18.104;2023-04-24T01:36:30;14.53;73.87
79494;SHT31;68951;53.130;18.104;2023-04-24T01:38:57;14.49;73.85
79494;SHT31;68951;53.130;18.104;2023-04-24T01:41:24;14.49;73.87
79494;SHT31;68951;53.130;18.104;2023-04-24T01:43:51;14.52;73.87
79494;SHT31;68951;53.130;18.104;2023-04-24T01:46:20;14.49;73.86
79494;SHT31;68951;53.130;18.104;2023-04-24T01:48:47;14.44;73.89
79494;SHT31;68951;53.130;18.104;2023-04-24T01:51:14;14.44;73.92
79494;SHT31;68951;53.130;18.104;2023-04-24T01:53:41;14.42;74.00
79494;SHT31;68951;53.130;18.104;2023-04-24T01:56:08;14.40;74.07
79494;SHT31;68951;53.130;18.104;2023-04-24T01:58:35;14.40;74.10
79494;SHT31;68951;53.130;18.104;2023-04-24T02:01:02;14.43;74.10
79494;SHT31;68951;53.130;18.104;2023-04-24T02:03:29;14.44;74.10
79494;SHT31;68951;53.130;18.104;2023-04-24T02:05:56;14.42;74.13
79494;SHT31;68951;53.130;18.104;2023-04-24T02:08:23;14.43;74.19
79494;SHT31;68951;53.130;18.104;2023-04-24T02:10:50;14.42;74.20
79494;SHT31;68951;53.130;18.104;2023-04-24T02:13:17;14.41;74.20
79494;SHT31;68951;53.130;18.104;2023-04-24T02:15:44;14.38;74.29
79494;SHT31;68951;53.130;18.104;2023-04-24T02:18:11;14.39;74.30
79494;SHT31;68951;53.130;18.104;2023-04-24T02:20:39;14.42;74.33
79494;SHT31;68951;53.130;18.104;2023-04-24T02:23:05;14.40;74.40
79494;SHT31;68951;53.130;18.104;2023-04-24T02:25:33;14.38;74.40
79494;SHT31;68951;53.130;18.104;2023-04-24T02:28:00;14.33;74.41
79494;SHT31;68951;53.130;18.104;2023-04-24T02:30:26;14.31;74.50
79494;SHT31;68951;53.130;18.104;2023-04-24T02:32:53;14.28;74.52
79494;SHT31;68951;53.130;18.104;2023-04-24T02:35:20;14.30;74.58
79494;SHT31;68951;53.130;18.104;2023-04-24T02:37:47;14.32;74.60
79494;SHT31;68951;53.130;18.104;2023-04-24T02:40:14;14.31;74.60
79494;SHT31;68951;53.130;18.104;2023-04-24T02:42:40;14.32;74.68
79494;SHT31;68951;53.130;18.104;2023-04-24T02:45:07;14.36;74.70
79494;SHT31;68951;53.130;18.104;2023-04-24T02:47:35;14.39;74.70
79494;SHT31;68951;53.130;18.104;2023-04-24T02:50:02;14.40;74.70
79494;SHT31;68951;53.130;18.104;2023-04-24T02:52:30;14.42;74.75
79494;SHT31;68951;53.130;18.104;2023-04-24T02:54:57;14.47;74.79
79494;SHT31;68951;53.130;18.104;2023-04-24T02:57:23;14.52;74.78
79494;SHT31;68951;53.130;18.104;2023-04-24T02:59:50;14.53;74.77
79494;SHT31;68951;53.130;18.104;2023-04-24T03:02:17;14.49;74.79
79494;SHT31;68951;53.130;18.104;2023-04-24T03:04:44;14.47;74.80
79494;SHT31;68951;53.130;18.104;2023-04-24T03:07:11;14.46;74.85
79494;SHT31;68951;53.130;18.104;2023-04-24T03:09:38;14.46;74.89
79494;SHT31;68951;53.130;18.104;2023-04-24T03:12:05;14.45;74.90
79494;SHT31;68951;53.130;18.104;2023-04-24T03:14:32;14.42;74.90
79494;SHT31;68951;53.130;18.104;2023-04-24T03:16:59;14.40;74.94
79494;SHT31;68951;53.130;18.104;2023-04-24T03:19:26;14.37;75.00
79494;SHT31;68951;53.130;18.104;2023-04-24T03:21:53;14.33;75.04
79494;SHT31;68951;53.130;18.104;2023-04-24T03:24:20;14.36;75.10
79494;SHT31;68951;53.130;18.104;2023-04-24T03:26:47;14.40;75.10
79494;SHT31;68951;53.130;18.104;2023-04-24T03:29:13;14.42;75.10
79494;SHT31;68951;53.130;18.104;2023-04-24T03:31:40;14.42;75.10
79494;SHT31;68951;53.130;18.104;2023-04-24T03:34:07;14.45;75.10
79494;SHT31;68951;53.130;18.104;2023-04-24T03:36:33;14.44;75.11
79494;SHT31;68951;53.130;18.104;2023-04-24T03:39:00;14.40;75.10
79494;SHT31;68951;53.130;18.104;2023-04-24T03:41:27;14.37;75.19
79494;SHT31;68951;53.130;18.104;2023-04-24T03:43:54;14.35;75.21
79494;SHT31;68951;53.130;18.104;2023-04-24T03:46:21;14.34;75.30
79494;SHT31;68951;53.130;18.104;2023-04-24T03:48:48;14.34;75.32
79494;SHT31;68951;53.130;18.104;2023-04-24T03:51:15;14.39;75.36
79494;SHT31;68951;53.130;18.104;2023-04-24T03:53:41;14.41;75.33
79494;SHT31;68951;53.130;18.104;2023-04-24T03:56:08;14.43;75.39
79494;SHT31;68951;53.130;18.104;2023-04-24T03:58:35;14.49;75.40
79494;SHT31;68951;53.130;18.104;2023-04-24T04:01:02;14.56;75.40
79494;SHT31;68951;53.130;18.104;2023-04-24T04:03:29;14.60;75.40
79494;SHT31;68951;53.130;18.104;2023-04-24T04:05:55;14.61;75.40
79494;SHT31;68951;53.130;18.104;2023-04-24T04:08:22;14.63;75.40
79494;SHT31;68951;53.130;18.104;2023-04-24T04:10:49;14.64;75.40
79494;SHT31;68951;53.130;18.104;2023-04-24T04:13:16;14.67;75.40
79494;SHT31;68951;53.130;18.104;2023-04-24T04:15:43;14.77;75.39
79494;SHT31;68951;53.130;18.104;2023-04-24T04:18:10;14.81;75.34
79494;SHT31;68951;53.130;18.104;2023-04-24T04:20:37;14.80;75.32
79494;SHT31;68951;53.130;18.104;2023-04-24T04:23:03;14.80;75.34
79494;SHT31;68951;53.130;18.104;2023-04-24T04:25:30;14.80;75.30
79494;SHT31;68951;53.130;18.104;2023-04-24T04:27:57;14.77;75.30
79494;SHT31;68951;53.130;18.104;2023-04-24T04:30:25;14.76;75.35
79494;SHT31;68951;53.130;18.104;2023-04-24T04:32:52;14.79;75.37
79494;SHT31;68951;53.130;18.104;2023-04-24T04:35:19;14.82;75.37
79494;SHT31;68951;53.130;18.104;2023-04-24T04:37:46;14.82;75.37
79494;SHT31;68951;53.130;18.104;2023-04-24T04:40:12;14.83;75.40
79494;SHT31;68951;53.130;18.104;2023-04-24T04:42:39;14.88;75.40
79494;SHT31;68951;53.130;18.104;2023-04-24T04:45:07;14.86;75.40
79494;SHT31;68951;53.130;18.104;2023-04-24T04:47:35;14.85;75.40
79494;SHT31;68951;53.130;18.104;2023-04-24T04:50:02;14.84;75.40
79494;SHT31;68951;53.130;18.104;2023-04-24T04:52:30;14.83;75.40
79494;SHT31;68951;53.130;18.104;2023-04-24T04:54:57;14.88;75.48
79494;SHT31;68951;53.130;18.104;2023-04-24T04:57:23;14.97;75.50
79494;SHT31;68951;53.130;18.104;2023-04-24T04:59:50;15.06;75.46
79494;SHT31;68951;53.130;18.104;2023-04-24T05:02:17;15.09;75.41
79494;SHT31;68951;53.130;18.104;2023-04-24T05:04:44;15.13;75.39
79494;SHT31;68951;53.130;18.104;2023-04-24T05:07:11;15.20;75.31
79494;SHT31;68951;53.130;18.104;2023-04-24T05:09:38;15.28;75.27
79494;SHT31;68951;53.130;18.104;2023-04-24T05:12:05;15.36;75.20
79494;SHT31;68951;53.130;18.104;2023-04-24T05:14:31;15.43;75.16
79494;SHT31;68951;53.130;18.104;2023-04-24T05:16:58;15.47;75.08
79494;SHT31;68951;53.130;18.104;2023-04-24T05:19:26;15.47;74.99
79494;SHT31;68951;53.130;18.104;2023-04-24T05:21:53;15.52;74.97
79494;SHT31;68951;53.130;18.104;2023-04-24T05:24:20;15.62;74.99
79494;SHT31;68951;53.130;18.104;2023-04-24T05:26:47;15.70;74.89
79494;SHT31;68951;53.130;18.104;2023-04-24T05:29:14;15.79;74.75
79494;SHT31;68951;53.130;18.104;2023-04-24T05:31:40;15.83;74.62
79494;SHT31;68951;53.130;18.104;2023-04-24T05:34:07;15.89;74.47
79494;SHT31;68951;53.130;18.104;2023-04-24T05:36:34;15.92;74.34
79494;SHT31;68951;53.130;18.104;2023-04-24T05:39:01;15.94;74.23
79494;SHT31;68951;53.130;18.104;2023-04-24T05:41:28;15.96;74.04
79494;SHT31;68951;53.130;18.104;2023-04-24T05:43:55;16.01;73.95
79494;SHT31;68951;53.130;18.104;2023-04-24T05:46:21;16.02;73.83
79494;SHT31;68951;53.130;18.104;2023-04-24T05:48:48;16.16;73.75
79494;SHT31;68951;53.130;18.104;2023-04-24T05:51:15;16.26;73.59
79494;SHT31;68951;53.130;18.104;2023-04-24T05:53:49;16.32;73.47
79494;SHT31;68951;53.130;18.104;2023-04-24T05:56:16;16.34;73.34
79494;SHT31;68951;53.130;18.104;2023-04-24T05:58:44;16.42;73.22
79494;SHT31;68951;53.130;18.104;2023-04-24T06:01:13;16.41;73.11
79494;SHT31;68951;53.130;18.104;2023-04-24T06:03:40;16.43;73.06
79494;SHT31;68951;53.130;18.104;2023-04-24T06:06:08;16.40;72.91
79494;SHT31;68951;53.130;18.104;2023-04-24T06:08:35;16.44;72.89
79494;SHT31;68951;53.130;18.104;2023-04-24T06:11:02;16.48;72.79
79494;SHT31;68951;53.130;18.104;2023-04-24T06:13:29;16.56;72.65
79494;SHT31;68951;53.130;18.104;2023-04-24T06:15:56;16.61;72.45
79494;SHT31;68951;53.130;18.104;2023-04-24T06:18:23;16.64;72.29
79494;SHT31;68951;53.130;18.104;2023-04-24T06:20:49;16.68;72.19
79494;SHT31;68951;53.130;18.104;2023-04-24T06:23:16;16.74;72.04
79494;SHT31;68951;53.130;18.104;2023-04-24T06:25:43;16.73;71.86
79494;SHT31;68951;53.130;18.104;2023-04-24T06:28:10;16.72;71.71
79494;SHT31;68951;53.130;18.104;2023-04-24T06:30:37;16.66;71.55
79494;SHT31;68951;53.130;18.104;2023-04-24T06:33:04;16.70;71.50
79494;SHT31;68951;53.130;18.104;2023-04-24T06:35:31;16.79;71.50
79494;SHT31;68951;53.130;18.104;2023-04-24T06:37:58;16.89;71.39
79494;SHT31;68951;53.130;18.104;2023-04-24T06:40:24;17.02;71.29
79494;SHT31;68951;53.130;18.104;2023-04-24T06:42:51;17.10;71.12
79494;SHT31;68951;53.130;18.104;2023-04-24T06:45:18;17.16;70.97
79494;SHT31;68951;53.130;18.104;2023-04-24T06:47:47;17.20;70.81
79494;SHT31;68951;53.130;18.104;2023-04-24T06:50:14;17.25;70.65
79494;SHT31;68951;53.130;18.104;2023-04-24T06:52:43;17.30;70.56
79494;SHT31;68951;53.130;18.104;2023-04-24T06:55:11;17.34;70.42
79494;SHT31;68951;53.130;18.104;2023-04-24T06:57:39;17.37;70.27
79494;SHT31;68951;53.130;18.104;2023-04-24T07:00:06;17.40;70.10
79494;SHT31;68951;53.130;18.104;2023-04-24T07:02:35;17.42;69.94
79494;SHT31;68951;53.130;18.104;2023-04-24T07:05:04;17.52;69.80
79494;SHT31;68951;53.130;18.104;2023-04-24T07:07:31;17.61;69.66
79494;SHT31;68951;53.130;18.104;2023-04-24T07:09:58;17.67;69.48
79494;SHT31;68951;53.130;18.104;2023-04-24T07:12:25;17.76;69.32
79494;SHT31;68951;53.130;18.104;2023-04-24T07:14:52;17.87;69.18
79494;SHT31;68951;53.130;18.104;2023-04-24T07:17:18;17.97;68.93
79494;SHT31;68951;53.130;18.104;2023-04-24T07:19:45;18.01;68.53
79494;SHT31;68951;53.130;18.104;2023-04-24T07:22:12;17.99;68.18
79494;SHT31;68951;53.130;18.104;2023-04-24T07:24:45;18.04;67.83
79494;SHT31;68951;53.130;18.104;2023-04-24T07:27:12;18.03;67.43
79494;SHT31;68951;53.130;18.104;2023-04-24T07:29:41;18.05;67.16
79494;SHT31;68951;53.130;18.104;2023-04-24T07:32:08;18.11;66.95
79494;SHT31;68951;53.130;18.104;2023-04-24T07:34:35;18.25;66.77
79494;SHT31;68951;53.130;18.104;2023-04-24T07:37:02;18.49;66.62
79494;SHT31;68951;53.130;18.104;2023-04-24T07:39:29;18.70;66.37
79494;SHT31;68951;53.130;18.104;2023-04-24T07:41:56;18.88;66.01
79494;SHT31;68951;53.130;18.104;2023-04-24T07:44:24;18.95;65.48
79494;SHT31;68951;53.130;18.104;2023-04-24T07:46:52;18.88;64.91
79494;SHT31;68951;53.130;18.104;2023-04-24T07:49:19;18.76;64.33
79494;SHT31;68951;53.130;18.104;2023-04-24T07:51:46;18.78;63.99
79494;SHT31;68951;53.130;18.104;2023-04-24T07:54:13;18.91;63.93
79494;SHT31;68951;53.130;18.104;2023-04-24T07:56:40;18.96;63.55
79494;SHT31;68951;53.130;18.104;2023-04-24T07:59:09;19.07;63.37
79494;SHT31;68951;53.130;18.104;2023-04-24T08:01:37;19.22;63.11
79494;SHT31;68951;53.130;18.104;2023-04-24T08:04:04;19.29;62.72
79494;SHT31;68951;53.130;18.104;2023-04-24T08:06:31;19.35;62.45
79494;SHT31;68951;53.130;18.104;2023-04-24T08:08:59;19.29;61.91
79494;SHT31;68951;53.130;18.104;2023-04-24T08:11:27;19.19;61.37
79494;SHT31;68951;53.130;18.104;2023-04-24T08:13:54;19.16;61.08
79494;SHT31;68951;53.130;18.104;2023-04-24T08:16:21;19.13;60.72
79494;SHT31;68951;53.130;18.104;2023-04-24T08:18:48;19.05;60.16
79494;SHT31;68951;53.130;18.104;2023-04-24T08:21:14;18.94;59.56
79494;SHT31;68951;53.130;18.104;2023-04-24T08:23:43;18.88;59.21
79494;SHT31;68951;53.130;18.104;2023-04-24T08:26:12;18.83;58.92
79494;SHT31;68951;53.130;18.104;2023-04-24T08:28:39;18.81;58.80
79494;SHT31;68951;53.130;18.104;2023-04-24T08:31:06;18.82;58.70
79494;SHT31;68951;53.130;18.104;2023-04-24T08:33:33;18.79;58.54
79494;SHT31;68951;53.130;18.104;2023-04-24T08:36:04;18.75;58.44
79494;SHT31;68951;53.130;18.104;2023-04-24T08:38:32;18.78;58.38
79494;SHT31;68951;53.130;18.104;2023-04-24T08:41:00;18.78;58.15
79494;SHT31;68951;53.130;18.104;2023-04-24T08:43:28;18.74;57.88
79494;SHT31;68951;53.130;18.104;2023-04-24T08:45:55;18.74;57.73
79494;SHT31;68951;53.130;18.104;2023-04-24T08:48:23;18.72;57.49
79494;SHT31;68951;53.130;18.104;2023-04-24T08:50:50;18.70;57.35
79494;SHT31;68951;53.130;18.104;2023-04-24T08:53:17;18.64;57.24
79494;SHT31;68951;53.130;18.104;2023-04-24T08:55:47;18.64;57.23
79494;SHT31;68951;53.130;18.104;2023-04-24T08:58:15;18.60;56.94
79494;SHT31;68951;53.130;18.104;2023-04-24T09:00:43;18.60;56.96
79494;SHT31;68951;53.130;18.104;2023-04-24T09:03:14;18.60;56.94
79494;SHT31;68951;53.130;18.104;2023-04-24T09:05:43;18.56;56.92
79494;SHT31;68951;53.130;18.104;2023-04-24T09:08:16;18.54;57.00
79494;SHT31;68951;53.130;18.104;2023-04-24T09:10:45;18.54;57.04
79494;SHT31;68951;53.130;18.104;2023-04-24T09:13:12;18.48;57.03
79494;SHT31;68951;53.130;18.104;2023-04-24T09:15:39;18.43;57.10
79494;SHT31;68951;53.130;18.104;2023-04-24T09:18:07;18.32;57.16
79494;SHT31;68951;53.130;18.104;2023-04-24T09:20:34;18.26;57.34
79494;SHT31;68951;53.130;18.104;2023-04-24T09:23:21;18.18;57.51
79494;SHT31;68951;53.130;18.104;2023-04-24T09:25:48;18.13;57.67
79494;SHT31;68951;53.130;18.104;2023-04-24T09:28:32;18.13;57.86
79494;SHT31;68951;53.130;18.104;2023-04-24T09:33:31;18.02;57.96
79494;SHT31;68951;53.130;18.104;2023-04-24T09:35:58;18.07;58.13
79494;SHT31;68951;53.130;18.104;2023-04-24T09:38:35;18.11;58.18
79494;SHT31;68951;53.130;18.104;2023-04-24T09:41:07;18.17;58.19
79494;SHT31;68951;53.130;18.104;2023-04-24T09:43:39;18.30;58.30
79494;SHT31;68951;53.130;18.104;2023-04-24T09:46:07;18.45;58.35
79494;SHT31;68951;53.130;18.104;2023-04-24T09:48:36;18.60;58.28
79494;SHT31;68951;53.130;18.104;2023-04-24T09:51:04;18.81;58.24
79494;SHT31;68951;53.130;18.104;2023-04-24T09:53:38;19.09;58.07
79494;SHT31;68951;53.130;18.104;2023-04-24T09:56:08;19.39;57.70
79494;SHT31;68951;53.130;18.104;2023-04-24T09:58:36;19.90;57.34
79494;SHT31;68951;53.130;18.104;2023-04-24T10:01:04;20.22;56.82
79494;SHT31;68951;53.130;18.104;2023-04-24T10:03:31;20.38;56.32
79494;SHT31;68951;53.130;18.104;2023-04-24T10:06:03;20.64;55.99
79494;SHT31;68951;53.130;18.104;2023-04-24T10:08:39;20.87;55.69
79494;SHT31;68951;53.130;18.104;2023-04-24T10:11:06;20.97;55.45
79494;SHT31;68951;53.130;18.104;2023-04-24T10:13:34;20.96;55.21
79494;SHT31;68951;53.130;18.104;2023-04-24T10:16:02;20.88;54.79
79494;SHT31;68951;53.130;18.104;2023-04-24T10:18:30;20.59;54.20
79494;SHT31;68951;53.130;18.104;2023-04-24T10:20:59;20.40;54.04
79494;SHT31;68951;53.130;18.104;2023-04-24T10:23:27;20.34;54.02
79494;SHT31;68951;53.130;18.104;2023-04-24T10:25:55;20.34;54.03
79494;SHT31;68951;53.130;18.104;2023-04-24T10:28:22;20.32;53.86
79494;SHT31;68951;53.130;18.104;2023-04-24T10:30:51;20.42;53.77
79494;SHT31;68951;53.130;18.104;2023-04-24T10:33:21;20.57;53.60
79494;SHT31;68951;53.130;18.104;2023-04-24T10:35:49;20.67;53.40
79494;SHT31;68951;53.130;18.104;2023-04-24T10:38:24;20.71;53.13
79494;SHT31;68951;53.130;18.104;2023-04-24T10:41:09;20.71;52.91
79494;SHT31;68951;53.130;18.104;2023-04-24T10:43:42;20.80;52.86
79494;SHT31;68951;53.130;18.104;2023-04-24T10:46:09;20.88;52.70
79494;SHT31;68951;53.130;18.104;2023-04-24T10:48:41;21.04;52.64
79494;SHT31;68951;53.130;18.104;2023-04-24T10:51:11;21.14;52.41
79494;SHT31;68951;53.130;18.104;2023-04-24T10:53:40;21.24;52.25
79494;SHT31;68951;53.130;18.104;2023-04-24T10:56:08;21.32;52.06
79494;SHT31;68951;53.130;18.104;2023-04-24T10:58:49;21.34;51.88
79494;SHT31;68951;53.130;18.104;2023-04-24T11:01:23;21.39;51.80
79494;SHT31;68951;53.130;18.104;2023-04-24T11:03:55;21.62;51.86
79494;SHT31;68951;53.130;18.104;2023-04-24T11:06:34;21.95;52.02
79494;SHT31;68951;53.130;18.104;2023-04-24T11:09:04;22.17;52.00
79494;SHT31;68951;53.130;18.104;2023-04-24T11:11:34;22.15;51.98
79494;SHT31;68951;53.130;18.104;2023-04-24T11:14:04;22.06;51.99
79494;SHT31;68951;53.130;18.104;2023-04-24T11:16:36;21.99;52.00
79494;SHT31;68951;53.130;18.104;2023-04-24T11:19:18;21.78;51.94
79494;SHT31;68951;53.130;18.104;2023-04-24T11:24:38;21.25;52.07
79494;SHT31;68951;53.130;18.104;2023-04-24T11:27:18;21.37;52.10
79494;SHT31;68951;53.130;18.104;2023-04-24T11:32:26;21.99;51.77
79494;SHT31;68951;53.130;18.104;2023-04-24T11:35:00;22.44;51.29
79494;SHT31;68951;53.130;18.104;2023-04-24T11:37:37;22.86;50.83
79494;SHT31;68951;53.130;18.104;2023-04-24T11:40:06;23.36;50.33
79494;SHT31;68951;53.130;18.104;2023-04-24T11:42:37;23.50;49.73
79494;SHT31;68951;53.130;18.104;2023-04-24T11:45:08;23.56;49.30
79494;SHT31;68951;53.130;18.104;2023-04-24T11:47:37;23.70;48.99
79494;SHT31;68951;53.130;18.104;2023-04-24T11:50:07;23.73;48.71
79494;SHT31;68951;53.130;18.104;2023-04-24T11:52:39;23.61;48.50
79494;SHT31;68951;53.130;18.104;2023-04-24T11:57:59;23.63;48.16
79494;SHT31;68951;53.130;18.104;2023-04-24T12:00:28;23.55;48.02
79494;SHT31;68951;53.130;18.104;2023-04-24T12:03:10;23.50;47.94
79494;SHT31;68951;53.130;18.104;2023-04-24T12:05:38;23.69;47.83
79494;SHT31;68951;53.130;18.104;2023-04-24T12:08:06;23.53;47.63
79494;SHT31;68951;53.130;18.104;2023-04-24T12:10:33;23.36;47.44
79494;SHT31;68951;53.130;18.104;2023-04-24T12:13:01;23.27;47.25
79494;SHT31;68951;53.130;18.104;2023-04-24T12:15:28;23.39;47.13
79494;SHT31;68951;53.130;18.104;2023-04-24T12:17:56;23.77;47.10
79494;SHT31;68951;53.130;18.104;2023-04-24T12:20:30;24.16;46.87
79494;SHT31;68951;53.130;18.104;2023-04-24T12:23:00;24.37;46.58
79494;SHT31;68951;53.130;18.104;2023-04-24T12:25:28;24.31;46.44
79494;SHT31;68951;53.130;18.104;2023-04-24T12:30:34;24.12;45.74
79494;SHT31;68951;53.130;18.104;2023-04-24T12:33:06;24.36;45.50
79494;SHT31;68951;53.130;18.104;2023-04-24T12:35:33;24.76;45.08
79494;SHT31;68951;53.130;18.104;2023-04-24T12:38:08;24.72;44.55
79494;SHT31;68951;53.130;18.104;2023-04-24T12:40:39;24.45;44.18
79494;SHT31;68951;53.130;18.104;2023-04-24T12:43:14;24.85;43.98
79494;SHT31;68951;53.130;18.104;2023-04-24T12:45:46;25.20;43.40
79494;SHT31;68951;53.130;18.104;2023-04-24T12:48:14;25.16;42.89
79494;SHT31;68951;53.130;18.104;2023-04-24T12:50:41;24.70;42.51
79494;SHT31;68951;53.130;18.104;2023-04-24T12:53:09;24.35;42.42
79494;SHT31;68951;53.130;18.104;2023-04-24T12:55:36;24.22;42.34
79494;SHT31;68951;53.130;18.104;2023-04-24T12:58:04;23.96;42.11
79494;SHT31;68951;53.130;18.104;2023-04-24T13:00:30;23.76;42.02
79494;SHT31;68951;53.130;18.104;2023-04-24T13:02:58;23.51;41.85
79494;SHT31;68951;53.130;18.104;2023-04-24T13:05:25;23.26;41.85
79494;SHT31;68951;53.130;18.104;2023-04-24T13:07:52;22.88;41.80
79494;SHT31;68951;53.130;18.104;2023-04-24T13:10:18;22.53;41.94
79494;SHT31;68951;53.130;18.104;2023-04-24T13:12:46;22.30;41.90
79494;SHT31;68951;53.130;18.104;2023-04-24T13:15:12;22.09;41.77
79494;SHT31;68951;53.130;18.104;2023-04-24T13:17:39;21.83;41.89
79494;SHT31;68951;53.130;18.104;2023-04-24T13:20:06;21.65;42.15
79494;SHT31;68951;53.130;18.104;2023-04-24T13:22:34;21.59;42.43
79494;SHT31;68951;53.130;18.104;2023-04-24T13:25:02;21.60;42.68
79494;SHT31;68951;53.130;18.104;2023-04-24T13:27:29;21.52;42.80
79494;SHT31;68951;53.130;18.104;2023-04-24T13:29:56;21.42;43.10
79494;SHT31;68951;53.130;18.104;2023-04-24T13:32:23;21.44;43.62
79494;SHT31;68951;53.130;18.104;2023-04-24T13:34:50;21.59;44.01
79494;SHT31;68951;53.130;18.104;2023-04-24T13:37:17;21.93;44.36
79494;SHT31;68951;53.130;18.104;2023-04-24T13:39:44;22.37;44.65
79494;SHT31;68951;53.130;18.104;2023-04-24T13:42:11;22.74;44.88
79494;SHT31;68951;53.130;18.104;2023-04-24T13:44:37;23.03;45.15
79494;SHT31;68951;53.130;18.104;2023-04-24T13:47:04;23.11;45.33
79494;SHT31;68951;53.130;18.104;2023-04-24T13:49:32;23.02;45.50
79494;SHT31;68951;53.130;18.104;2023-04-24T13:51:59;22.81;45.76
79494;SHT31;68951;53.130;18.104;2023-04-24T13:54:25;22.45;46.10
79494;SHT31;68951;53.130;18.104;2023-04-24T13:56:52;22.21;46.52
79494;SHT31;68951;53.130;18.104;2023-04-24T13:59:20;21.98;46.97
79494;SHT31;68951;53.130;18.104;2023-04-24T14:01:47;21.77;47.44
79494;SHT31;68951;53.130;18.104;2023-04-24T14:04:14;21.61;47.88
79494;SHT31;68951;53.130;18.104;2023-04-24T14:06:41;21.41;48.32
79494;SHT31;68951;53.130;18.104;2023-04-24T14:09:10;21.21;48.81
79494;SHT31;68951;53.130;18.104;2023-04-24T14:11:37;21.06;49.11
79494;SHT31;68951;53.130;18.104;2023-04-24T14:14:04;21.07;49.34
79494;SHT31;68951;53.130;18.104;2023-04-24T14:16:31;21.05;49.50
79494;SHT31;68951;53.130;18.104;2023-04-24T14:18:58;21.00;49.59
79494;SHT31;68951;53.130;18.104;2023-04-24T14:21:25;20.87;49.68
79494;SHT31;68951;53.130;18.104;2023-04-24T14:23:52;20.78;49.73
79494;SHT31;68951;53.130;18.104;2023-04-24T14:26:19;20.69;49.84
79494;SHT31;68951;53.130;18.104;2023-04-24T14:28:46;20.57;49.99
79494;SHT31;68951;53.130;18.104;2023-04-24T14:31:13;20.52;50.14
79494;SHT31;68951;53.130;18.104;2023-04-24T14:33:40;20.47;50.23
79494;SHT31;68951;53.130;18.104;2023-04-24T14:36:06;20.47;50.40
79494;SHT31;68951;53.130;18.104;2023-04-24T14:38:33;20.45;50.57
79494;SHT31;68951;53.130;18.104;2023-04-24T14:41:01;20.50;50.68
79494;SHT31;68951;53.130;18.104;2023-04-24T14:43:33;20.54;50.81
79494;SHT31;68951;53.130;18.104;2023-04-24T14:46:01;20.71;50.92
79494;SHT31;68951;53.130;18.104;2023-04-24T14:48:29;20.89;50.92
79494;SHT31;68951;53.130;18.104;2023-04-24T14:50:56;21.04;50.90
79494;SHT31;68951;53.130;18.104;2023-04-24T14:53:24;21.08;50.91
79494;SHT31;68951;53.130;18.104;2023-04-24T14:55:51;21.05;50.77
79494;SHT31;68951;53.130;18.104;2023-04-24T14:58:18;20.96;50.49
79494;SHT31;68951;53.130;18.104;2023-04-24T15:00:45;20.83;50.26
79494;SHT31;68951;53.130;18.104;2023-04-24T15:03:12;20.69;50.14
79494;SHT31;68951;53.130;18.104;2023-04-24T15:05:39;20.69;50.24
79494;SHT31;68951;53.130;18.104;2023-04-24T15:08:05;20.66;50.22
79494;SHT31;68951;53.130;18.104;2023-04-24T15:10:32;20.52;50.27
79494;SHT31;68951;53.130;18.104;2023-04-24T15:12:59;20.43;50.32
79494;SHT31;68951;53.130;18.104;2023-04-24T15:15:26;20.33;50.46
79494;SHT31;68951;53.130;18.104;2023-04-24T15:17:53;20.35;50.61
79494;SHT31;68951;53.130;18.104;2023-04-24T15:20:20;20.38;50.69
79494;SHT31;68951;53.130;18.104;2023-04-24T15:22:47;20.39;50.79
79494;SHT31;68951;53.130;18.104;2023-04-24T15:25:14;20.36;50.80
79494;SHT31;68951;53.130;18.104;2023-04-24T15:27:44;20.34;50.84
79494;SHT31;68951;53.130;18.104;2023-04-24T15:30:12;20.42;50.92
79494;SHT31;68951;53.130;18.104;2023-04-24T15:32:40;20.47;50.91